Time;durP1;ratioP1;P1;durP2;ratioP2;P2;SDS_P1;SDS_P2;PMS_P1;PMS_P2;Temp;Humidity;BMP_temperature;BMP_pressure;BME280_temperature;BME280_humidity;BME280_pressure;Samples;Min_cycle;Max_cycle;Signal;HPM_P1;HPM_P2
2022/12/12 00:01:36;;;;;;;24.63;16.38;;;1.00;99.90;;;;;;4893255;29;20498;-82
2022/12/12 00:04:02;;;;;;;24.23;17.35;;;1.00;99.90;;;;;;4900713;29;20042;-83
2022/12/12 00:06:28;;;;;;;22.70;15.90;;;1.00;99.90;;;;;;4893742;29;20486;-82
2022/12/12 00:08:54;;;;;;;21.02;15.55;;;1.20;99.90;;;;;;4911388;29;20089;-82
2022/12/12 00:11:21;;;;;;;22.35;15.45;;;1.00;99.90;;;;;;4913160;29;20086;-82
2022/12/12 00:13:47;;;;;;;22.33;16.30;;;1.00;99.90;;;;;;4895885;29;20059;-82
2022/12/12 00:16:13;;;;;;;19.35;15.55;;;1.00;99.90;;;;;;4909509;29;20047;-82
2022/12/12 00:18:39;;;;;;;22.27;15.07;;;0.90;99.90;;;;;;4900908;29;20036;-82
2022/12/12 00:21:10;;;;;;;22.13;15.77;;;0.90;99.90;;;;;;4912027;29;20032;-82
2022/12/12 00:23:36;;;;;;;25.90;16.20;;;0.90;99.90;;;;;;4900954;29;20123;-82
2022/12/12 00:26:05;;;;;;;20.67;15.02;;;1.00;99.90;;;;;;4900928;29;20166;-81
2022/12/12 00:28:31;;;;;;;21.40;14.88;;;0.90;99.90;;;;;;4916418;29;20495;-81
2022/12/12 00:30:56;;;;;;;21.65;14.88;;;1.00;99.90;;;;;;4910265;29;20048;-82
2022/12/12 00:33:22;;;;;;;20.48;15.88;;;1.00;99.90;;;;;;4911978;29;20465;-83
2022/12/12 00:35:53;;;;;;;19.05;14.32;;;1.00;99.90;;;;;;4896457;29;20042;-82
2022/12/12 00:38:21;;;;;;;21.25;14.88;;;1.00;99.90;;;;;;4928344;29;20043;-82
2022/12/12 00:40:47;;;;;;;20.17;14.55;;;1.00;99.90;;;;;;4912132;29;20050;-82
2022/12/12 00:43:13;;;;;;;21.27;14.50;;;1.00;99.90;;;;;;4911571;29;20430;-82
2022/12/12 00:45:38;;;;;;;21.02;15.15;;;1.00;99.90;;;;;;4910120;29;20040;-82
2022/12/12 00:48:05;;;;;;;18.95;14.32;;;1.00;99.90;;;;;;4898475;29;20047;-82
2022/12/12 00:50:31;;;;;;;20.27;15.20;;;1.00;99.90;;;;;;4900015;29;20039;-82
2022/12/12 00:52:56;;;;;;;20.13;14.38;;;0.90;99.90;;;;;;4899382;29;20047;-82
2022/12/12 00:55:26;;;;;;;18.45;14.40;;;0.90;99.90;;;;;;4910998;29;20099;-82
2022/12/12 00:57:52;;;;;;;22.88;14.68;;;0.90;99.90;;;;;;4911901;29;20039;-82
2022/12/12 01:00:18;;;;;;;21.77;14.93;;;1.00;99.90;;;;;;4900165;29;20134;-82
2022/12/12 01:02:44;;;;;;;21.48;14.77;;;1.00;99.90;;;;;;4896607;29;20051;-82
2022/12/12 01:05:10;;;;;;;19.13;14.52;;;1.00;99.90;;;;;;4914478;29;20044;-83
2022/12/12 01:07:36;;;;;;;20.95;15.10;;;1.00;99.90;;;;;;4914517;29;20797;-82
2022/12/12 01:10:02;;;;;;;18.30;14.63;;;1.00;99.90;;;;;;4897572;29;20050;-82
2022/12/12 01:12:28;;;;;;;20.23;15.52;;;1.00;99.90;;;;;;4895325;29;20054;-82
2022/12/12 01:14:53;;;;;;;20.73;15.45;;;1.00;99.90;;;;;;4892404;29;20040;-82
2022/12/12 01:17:19;;;;;;;21.15;15.45;;;1.00;99.90;;;;;;4913613;29;20036;-82
2022/12/12 01:19:44;;;;;;;23.33;15.60;;;0.90;99.90;;;;;;4896965;29;20128;-82
2022/12/12 01:22:10;;;;;;;22.98;15.40;;;1.00;99.90;;;;;;4911102;29;20043;-82
2022/12/12 01:24:35;;;;;;;18.25;14.55;;;1.00;99.90;;;;;;4913417;29;20711;-82
2022/12/12 01:27:01;;;;;;;19.35;14.40;;;1.00;99.90;;;;;;4896437;29;20044;-82
2022/12/12 01:29:27;;;;;;;22.67;15.40;;;1.00;99.90;;;;;;4912111;29;20103;-82
2022/12/12 01:31:52;;;;;;;20.58;14.57;;;0.90;99.90;;;;;;4914853;29;20403;-82
2022/12/12 01:34:18;;;;;;;19.88;15.23;;;1.00;99.90;;;;;;4899096;29;20047;-82
2022/12/12 01:36:43;;;;;;;19.63;14.35;;;1.00;99.90;;;;;;4910915;29;20527;-82
2022/12/12 01:39:09;;;;;;;18.27;13.52;;;1.00;99.90;;;;;;4892284;29;20036;-82
2022/12/12 01:41:35;;;;;;;20.88;14.35;;;1.00;99.90;;;;;;4915530;29;20506;-82
2022/12/12 01:44:03;;;;;;;18.02;13.88;;;1.00;99.90;;;;;;4910357;29;20074;-82
2022/12/12 01:46:44;;;;;;;16.95;13.63;;;1.00;99.90;;;;;;4899138;29;20103;-82
2022/12/12 01:49:24;;;;;;;17.38;13.65;;;0.90;99.90;;;;;;4898524;29;20058;-82
2022/12/12 01:51:56;;;;;;;21.42;14.32;;;1.00;99.90;;;;;;4911033;29;20043;-83
2022/12/12 01:54:28;;;;;;;20.60;14.00;;;0.90;99.90;;;;;;4898482;29;20099;-82
2022/12/12 01:56:56;;;;;;;17.88;12.85;;;1.00;99.90;;;;;;4892402;29;20074;-82
2022/12/12 01:59:24;;;;;;;18.35;13.90;;;1.00;99.90;;;;;;4898236;29;20046;-82
2022/12/12 02:01:51;;;;;;;17.73;14.02;;;1.00;99.90;;;;;;4910538;29;20043;-83
2022/12/12 02:04:18;;;;;;;18.00;14.52;;;1.00;99.90;;;;;;4915397;29;20503;-82
2022/12/12 02:06:44;;;;;;;20.38;14.88;;;1.00;99.90;;;;;;4908986;29;20039;-82
2022/12/12 02:09:12;;;;;;;19.70;13.05;;;1.00;99.90;;;;;;4910503;29;20040;-82
2022/12/12 02:11:44;;;;;;;18.17;13.48;;;1.00;99.90;;;;;;4910441;29;20051;-82
2022/12/12 02:14:12;;;;;;;16.50;12.23;;;1.00;99.90;;;;;;4913357;29;20127;-82
2022/12/12 02:17:00;;;;;;;17.20;13.65;;;0.90;99.90;;;;;;4913561;29;20067;-82
2022/12/12 02:19:46;;;;;;;20.27;14.95;;;0.90;99.90;;;;;;4918045;29;20571;-82
2022/12/12 02:22:37;;;;;;;15.90;12.95;;;1.00;99.90;;;;;;4918147;29;20099;-83
2022/12/12 02:25:05;;;;;;;18.80;12.75;;;1.00;99.90;;;;;;4904376;29;20091;-82
2022/12/12 02:27:51;;;;;;;18.48;14.23;;;1.00;99.90;;;;;;4901834;29;20052;-82
2022/12/12 02:30:36;;;;;;;16.75;12.57;;;0.90;99.90;;;;;;4912352;29;21017;-82
2022/12/12 02:33:32;;;;;;;17.67;12.75;;;1.00;99.90;;;;;;4913920;29;20063;-82
2022/12/12 02:36:08;;;;;;;18.33;13.15;;;1.00;99.90;;;;;;4898428;29;20537;-82
2022/12/12 02:38:53;;;;;;;19.52;13.10;;;0.90;99.90;;;;;;4917097;29;20039;-82
2022/12/12 02:41:28;;;;;;;18.13;13.50;;;0.90;99.90;;;;;;4928390;29;20087;-82
2022/12/12 02:43:59;;;;;;;16.02;11.55;;;0.90;99.90;;;;;;4912160;29;20081;-82
2022/12/12 02:46:36;;;;;;;17.02;12.55;;;1.00;99.90;;;;;;4914555;29;20067;-82
2022/12/12 02:49:08;;;;;;;17.95;13.40;;;0.90;99.90;;;;;;4897973;29;20532;-82
2022/12/12 02:51:36;;;;;;;17.27;12.45;;;1.00;99.90;;;;;;4899016;29;20082;-82
2022/12/12 02:54:16;;;;;;;17.10;12.25;;;0.90;99.90;;;;;;4916395;29;20043;-82
2022/12/12 02:56:44;;;;;;;17.23;12.15;;;0.90;99.90;;;;;;4926421;29;20035;-82
2022/12/12 02:59:22;;;;;;;18.25;12.65;;;0.90;99.90;;;;;;4896254;29;20040;-82
2022/12/12 03:02:11;;;;;;;16.60;13.00;;;0.90;99.90;;;;;;4913174;29;20126;-82
2022/12/12 03:08:22;;;;;;;15.40;11.93;;;0.90;99.90;;;;;;4915916;29;20074;-81
2022/12/12 03:10:58;;;;;;;15.65;11.52;;;1.00;99.90;;;;;;4911618;29;20043;-82
2022/12/12 03:13:33;;;;;;;19.65;13.50;;;1.00;99.90;;;;;;4918399;29;20056;-82
2022/12/12 03:16:18;;;;;;;19.90;12.52;;;0.90;99.90;;;;;;4899572;29;20602;-81
2022/12/12 03:19:12;;;;;;;16.27;12.25;;;0.90;99.90;;;;;;4900952;29;20058;-81
2022/12/12 03:21:59;;;;;;;16.73;12.05;;;1.00;99.90;;;;;;4927008;29;20039;-81
2022/12/12 03:24:49;;;;;;;17.42;12.85;;;0.90;99.90;;;;;;4913856;29;20444;-82
2022/12/12 03:27:23;;;;;;;14.90;12.07;;;0.90;99.90;;;;;;4912194;29;20044;-81
2022/12/12 03:29:52;;;;;;;15.20;12.15;;;1.00;99.90;;;;;;4910306;29;20058;-81
2022/12/12 03:33:04;;;;;;;17.67;12.57;;;0.90;99.90;;;;;;4927259;29;20040;-81
2022/12/12 03:35:42;;;;;;;16.50;12.40;;;0.90;99.90;;;;;;4885575;29;20048;-82
2022/12/12 03:38:27;;;;;;;15.85;11.57;;;1.00;99.90;;;;;;4915709;29;20051;-82
2022/12/12 03:40:57;;;;;;;20.02;12.60;;;1.00;99.90;;;;;;4911316;29;20134;-82
2022/12/12 03:43:27;;;;;;;18.05;12.88;;;0.90;99.90;;;;;;4913165;29;20119;-81
2022/12/12 03:46:14;;;;;;;18.63;13.50;;;1.00;99.90;;;;;;4912463;29;20051;-81
2022/12/12 03:48:49;;;;;;;17.88;12.18;;;0.90;99.90;;;;;;4916222;29;20087;-81
2022/12/12 03:51:28;;;;;;;18.60;13.97;;;1.00;99.90;;;;;;4900023;29;20044;-82
2022/12/12 03:54:17;;;;;;;16.00;12.38;;;0.90;99.90;;;;;;4926452;29;20426;-82
2022/12/12 03:57:04;;;;;;;15.70;12.00;;;0.90;99.90;;;;;;4911705;29;20067;-82
2022/12/12 03:59:40;;;;;;;;;;;0.90;99.90;;;;;;4898432;29;20496;-82
2022/12/12 04:02:26;;;;;;;18.42;12.68;;;0.90;99.90;;;;;;4911448;29;20299;-81
2022/12/12 04:05:01;;;;;;;19.65;12.80;;;0.90;99.90;;;;;;4911549;29;20574;-82
2022/12/12 04:07:30;;;;;;;18.77;12.38;;;0.90;99.90;;;;;;4913180;29;20055;-82
2022/12/12 04:12:58;;;;;;;19.20;13.75;;;0.90;99.90;;;;;;4928709;29;20148;-82
2022/12/12 04:15:47;;;;;;;16.83;12.45;;;1.30;99.90;;;;;;4916111;29;20044;-81
2022/12/12 04:18:42;;;;;;;19.70;13.77;;;1.00;99.90;;;;;;4911045;29;20051;-82
2022/12/12 04:24:13;;;;;;;17.08;13.05;;;1.00;99.90;;;;;;4915756;29;20491;-82
2022/12/12 04:27:03;;;;;;;18.02;13.75;;;1.00;99.90;;;;;;4913194;29;20044;-81
2022/12/12 04:29:40;;;;;;;22.10;12.70;;;0.90;99.90;;;;;;4909978;29;20939;-81
2022/12/12 04:32:12;;;;;;;18.50;13.43;;;0.90;99.90;;;;;;4899066;29;20495;-81
2022/12/12 04:34:58;;;;;;;15.82;12.57;;;0.90;99.90;;;;;;4895944;29;20695;-81
2022/12/12 04:37:29;;;;;;;;;;;0.90;99.90;;;;;;4915290;29;20050;-82
2022/12/12 04:39:59;;;;;;;19.25;13.15;;;1.00;99.90;;;;;;4911864;29;19929;-81
2022/12/12 04:42:29;;;;;;;16.90;13.02;;;1.00;99.90;;;;;;4913272;29;20032;-81
2022/12/12 04:45:02;;;;;;;20.08;13.30;;;1.00;99.90;;;;;;4926053;29;20043;-82
2022/12/12 04:47:30;;;;;;;18.35;13.30;;;0.90;99.90;;;;;;4927267;29;20047;-81
2022/12/12 04:49:58;;;;;;;17.55;13.43;;;0.90;99.90;;;;;;4916061;29;20167;-81
2022/12/12 04:52:25;;;;;;;18.08;14.70;;;0.90;99.90;;;;;;4911818;29;20070;-81
2022/12/12 04:55:03;;;;;;;16.65;13.88;;;0.90;99.90;;;;;;4898086;29;20102;-81
2022/12/12 04:57:38;;;;;;;18.90;13.05;;;0.80;99.90;;;;;;4909487;29;20044;-83
2022/12/12 05:00:06;;;;;;;16.85;13.07;;;0.80;99.90;;;;;;4886841;29;20043;-83
2022/12/12 05:02:34;;;;;;;18.75;14.70;;;0.90;99.90;;;;;;4892615;29;20040;-83
2022/12/12 05:05:25;;;;;;;17.80;13.13;;;0.90;99.90;;;;;;4890132;29;20184;-82
2022/12/12 05:07:59;;;;;;;16.15;13.07;;;0.90;99.90;;;;;;4912043;29;20059;-83
2022/12/12 05:10:25;;;;;;;19.70;13.75;;;0.80;99.90;;;;;;4904513;29;20043;-83
2022/12/12 05:12:59;;;;;;;18.25;14.07;;;0.90;99.90;;;;;;4906595;29;20519;-84
2022/12/12 05:15:26;;;;;;;19.08;14.23;;;0.80;99.90;;;;;;4904269;29;20448;-85
2022/12/12 05:18:06;;;;;;;20.60;14.30;;;0.90;99.90;;;;;;4905867;29;20641;-83
2022/12/12 05:20:40;;;;;;;18.75;13.85;;;0.90;99.90;;;;;;4908974;29;20067;-84
2022/12/12 05:23:23;;;;;;;17.25;13.75;;;1.10;99.90;;;;;;4908753;29;20087;-82
2022/12/12 05:26:22;;;;;;;17.73;14.13;;;0.90;99.90;;;;;;4889509;29;20035;-81
2022/12/12 05:28:49;;;;;;;17.13;13.32;;;0.90;99.90;;;;;;4898363;29;20722;-82
2022/12/12 05:31:14;;;;;;;18.90;14.63;;;0.90;99.90;;;;;;4906229;29;20183;-84
2022/12/12 05:33:40;;;;;;;16.95;12.57;;;0.90;99.90;;;;;;4907102;29;20126;-84
2022/12/12 05:36:06;;;;;;;17.70;13.43;;;0.90;99.90;;;;;;4907626;29;20107;-82
2022/12/12 05:38:32;;;;;;;18.77;14.27;;;0.90;99.90;;;;;;4912776;29;20063;-82
2022/12/12 05:41:02;;;;;;;22.50;14.68;;;0.90;99.90;;;;;;4895103;29;20051;-83
2022/12/12 05:43:28;;;;;;;18.25;13.77;;;0.90;99.90;;;;;;4896484;29;20035;-84
2022/12/12 05:45:54;;;;;;;18.58;13.80;;;0.90;99.90;;;;;;4908635;29;21837;-81
2022/12/12 05:48:19;;;;;;;16.33;12.82;;;0.90;99.90;;;;;;4895357;29;20617;-82
2022/12/12 05:50:47;;;;;;;16.88;13.75;;;0.90;99.90;;;;;;4911494;29;20802;-85
2022/12/12 05:53:16;;;;;;;17.52;13.15;;;0.90;99.90;;;;;;4896123;29;20130;-82
2022/12/12 05:55:42;;;;;;;18.75;13.55;;;0.90;99.90;;;;;;4906995;29;20144;-83
2022/12/12 05:58:07;;;;;;;19.92;14.18;;;0.90;99.90;;;;;;4908182;29;20063;-82
2022/12/12 06:00:33;;;;;;;17.23;13.65;;;0.90;99.90;;;;;;4904132;29;20093;-81
2022/12/12 06:02:59;;;;;;;18.83;14.52;;;0.90;99.90;;;;;;4926500;29;20074;-82
2022/12/12 06:05:24;;;;;;;15.45;12.93;;;0.90;99.90;;;;;;4908531;29;20048;-82
2022/12/12 06:07:50;;;;;;;17.73;13.38;;;0.90;99.90;;;;;;4909752;29;20039;-81
2022/12/12 06:10:16;;;;;;;19.48;13.57;;;0.80;99.90;;;;;;4913523;29;20082;-81
2022/12/12 06:12:41;;;;;;;17.08;13.95;;;0.90;99.90;;;;;;4912600;29;20051;-82
2022/12/12 06:15:07;;;;;;;19.13;14.05;;;0.80;99.90;;;;;;4911578;29;20095;-82
2022/12/12 06:17:33;;;;;;;16.75;13.55;;;0.70;99.90;;;;;;4910426;29;20031;-80
2022/12/12 06:19:59;;;;;;;18.85;14.60;;;0.80;99.90;;;;;;4909648;29;20040;-83
2022/12/12 06:22:27;;;;;;;17.50;13.38;;;0.70;99.90;;;;;;4926839;29;20126;-83
2022/12/12 06:24:53;;;;;;;16.48;13.35;;;0.80;99.90;;;;;;4909451;29;20467;-82
2022/12/12 06:27:18;;;;;;;16.95;13.65;;;0.80;99.90;;;;;;4909520;29;20044;-82
2022/12/12 06:29:44;;;;;;;16.23;13.25;;;0.80;99.90;;;;;;4908960;29;20100;-81
2022/12/12 06:32:10;;;;;;;19.08;14.55;;;0.80;99.90;;;;;;4909836;29;20051;-82
2022/12/12 06:34:37;;;;;;;18.00;14.00;;;0.80;99.90;;;;;;4911121;29;20090;-84
2022/12/12 06:37:25;;;;;;;18.13;14.13;;;0.80;99.90;;;;;;4908512;29;20414;-85
2022/12/12 06:39:50;;;;;;;19.02;13.50;;;0.90;99.90;;;;;;4905866;29;20048;-82
2022/12/12 06:42:16;;;;;;;17.92;13.20;;;0.90;99.90;;;;;;4912311;29;20046;-82
2022/12/12 06:44:42;;;;;;;18.02;14.13;;;0.90;99.90;;;;;;4908353;29;20028;-83
2022/12/12 06:47:07;;;;;;;17.95;13.65;;;0.90;99.90;;;;;;4909630;29;20044;-82
2022/12/12 06:49:33;;;;;;;16.15;12.38;;;0.80;99.90;;;;;;4906923;29;20043;-82
2022/12/12 06:52:05;;;;;;;19.45;14.80;;;0.90;99.90;;;;;;4905620;29;20040;-84
2022/12/12 06:54:36;;;;;;;18.25;14.15;;;0.90;99.90;;;;;;4897596;29;20403;-84
2022/12/12 06:57:02;;;;;;;18.33;13.38;;;0.90;99.90;;;;;;4897754;29;20523;-85
2022/12/12 06:59:36;;;;;;;16.25;12.88;;;0.80;99.90;;;;;;4904032;29;20071;-84
2022/12/12 07:02:02;;;;;;;19.60;14.43;;;0.80;99.90;;;;;;4911160;29;20178;-84
2022/12/12 07:04:28;;;;;;;17.80;13.25;;;0.70;99.90;;;;;;4911042;29;20027;-84
2022/12/12 07:06:54;;;;;;;21.00;14.85;;;0.70;99.90;;;;;;4911953;29;20764;-84
2022/12/12 07:09:25;;;;;;;17.08;13.40;;;0.70;99.90;;;;;;4909267;29;20039;-84
2022/12/12 07:12:07;;;;;;;16.58;13.45;;;0.70;99.90;;;;;;4910984;29;20059;-84
2022/12/12 07:14:32;;;;;;;16.85;13.82;;;0.60;99.90;;;;;;4912080;29;20044;-84
2022/12/12 07:16:58;;;;;;;16.13;13.32;;;0.70;99.90;;;;;;4912487;29;20051;-85
2022/12/12 07:19:25;;;;;;;17.73;14.00;;;0.70;99.90;;;;;;4910919;29;20465;-84
2022/12/12 07:21:50;;;;;;;22.40;15.48;;;0.70;99.90;;;;;;4924290;29;20383;-84
2022/12/12 07:24:16;;;;;;;18.63;13.50;;;1.20;99.90;;;;;;4927296;29;20047;-84
2022/12/12 07:26:42;;;;;;;17.15;13.02;;;0.70;99.90;;;;;;4912910;29;20514;-84
2022/12/12 07:29:07;;;;;;;19.45;13.63;;;0.60;99.90;;;;;;4910207;29;20055;-84
2022/12/12 07:31:33;;;;;;;17.27;13.70;;;0.70;99.90;;;;;;4923138;29;20048;-84
2022/12/12 07:34:04;;;;;;;19.00;13.98;;;0.70;99.90;;;;;;4909056;29;20039;-85
2022/12/12 07:37:15;;;;;;;20.60;13.95;;;1.10;99.90;;;;;;4886247;29;20138;-85
2022/12/12 07:39:44;;;;;;;17.63;14.13;;;0.70;99.90;;;;;;4910853;29;20138;-85
2022/12/12 07:42:27;;;;;;;19.15;14.05;;;0.70;99.90;;;;;;4902160;29;20036;-86
2022/12/12 08:22:27;;;;;;;18.25;14.55;;;0.90;99.90;;;;;;4876357;29;20038;-85
2022/12/12 08:24:52;;;;;;;20.15;14.60;;;0.70;99.90;;;;;;4897242;29;20044;-83
2022/12/12 08:27:18;;;;;;;18.70;15.45;;;0.70;99.90;;;;;;4910743;29;20097;-82
2022/12/12 08:29:52;;;;;;;19.40;13.95;;;0.70;99.90;;;;;;4896014;29;20046;-85
2022/12/12 08:32:18;;;;;;;19.05;13.82;;;0.80;99.90;;;;;;4915640;29;20086;-86
2022/12/12 08:34:46;;;;;;;19.98;14.57;;;1.50;99.90;;;;;;4900341;29;20053;-85
2022/12/12 08:37:11;;;;;;;18.88;14.00;;;0.80;99.90;;;;;;4910974;29;20036;-85
2022/12/12 08:39:38;;;;;;;22.42;15.18;;;0.80;99.90;;;;;;4911036;29;20035;-83
2022/12/12 08:42:08;;;;;;;19.33;13.88;;;0.90;99.90;;;;;;4907253;29;20100;-85
2022/12/12 08:44:34;;;;;;;18.13;13.60;;;0.90;99.90;;;;;;4892986;29;20044;-84
2022/12/12 08:46:59;;;;;;;17.52;13.95;;;0.90;99.90;;;;;;4912050;29;20090;-84
2022/12/12 08:49:25;;;;;;;21.02;14.93;;;0.80;99.90;;;;;;4898751;29;20549;-84
2022/12/12 08:51:50;;;;;;;16.92;13.52;;;0.90;99.90;;;;;;4909673;29;20914;-82
2022/12/12 08:54:16;;;;;;;20.52;14.65;;;1.00;99.90;;;;;;4907946;29;21131;-83
2022/12/12 08:56:47;;;;;;;19.48;15.20;;;1.00;99.90;;;;;;4898331;29;20039;-84
2022/12/12 09:03:23;;;;;;;18.63;13.65;;;1.10;99.90;;;;;;4929081;29;20047;-85
2022/12/12 09:06:13;;;;;;;19.02;12.82;;;0.80;99.90;;;;;;4830267;29;20465;-85
2022/12/12 10:18:47;;;;;;;17.50;13.50;;;1.60;99.90;;;;;;4921337;29;20510;-83
2022/12/12 10:21:19;;;;;;;20.30;14.60;;;1.70;99.90;;;;;;4910105;29;20035;-83
2022/12/12 10:23:52;;;;;;;18.33;12.80;;;1.70;99.90;;;;;;4907016;29;20044;-83
2022/12/12 10:26:28;;;;;;;17.17;13.00;;;1.70;99.90;;;;;;4910973;29;20047;-85
2022/12/12 10:29:10;;;;;;;16.98;13.93;;;1.70;99.90;;;;;;4913089;29;20518;-84
2022/12/12 10:31:53;;;;;;;18.05;13.10;;;1.80;99.90;;;;;;4899641;29;20055;-84
2022/12/12 10:34:54;;;;;;;20.27;14.70;;;1.80;99.90;;;;;;4909541;29;20126;-84
2022/12/12 10:37:34;;;;;;;18.10;14.13;;;1.80;99.90;;;;;;4928919;29;20101;-83
2022/12/12 10:40:09;;;;;;;17.63;13.70;;;1.90;99.90;;;;;;4910606;29;20046;-83
2022/12/12 10:42:57;;;;;;;15.80;12.73;;;1.90;99.90;;;;;;4909265;29;20440;-84
2022/12/12 10:45:29;;;;;;;20.67;13.68;;;2.10;99.90;;;;;;4912929;29;20107;-83
2022/12/12 10:47:54;;;;;;;17.70;13.65;;;1.90;99.90;;;;;;4910317;29;20054;-84
2022/12/12 10:50:43;;;;;;;18.33;14.30;;;2.00;99.90;;;;;;4912668;29;20043;-84
2022/12/12 10:53:11;;;;;;;16.83;13.63;;;2.00;99.90;;;;;;4901250;29;20118;-84
2022/12/12 10:56:19;;;;;;;17.00;14.13;;;2.10;99.90;;;;;;4912370;29;20084;-83
2022/12/12 10:58:58;;;;;;;19.88;14.07;;;2.10;99.90;;;;;;4892268;29;20142;-84
2022/12/12 11:01:31;;;;;;;17.00;14.10;;;2.10;99.90;;;;;;4896465;29;20040;-83
2022/12/12 11:04:08;;;;;;;18.02;13.63;;;2.20;99.90;;;;;;4932438;29;20048;-83
2022/12/12 11:06:55;;;;;;;18.55;12.77;;;2.20;99.90;;;;;;4899628;29;20047;-83
2022/12/12 11:09:26;;;;;;;18.10;14.18;;;2.20;99.90;;;;;;4917191;29;20048;-84
2022/12/12 11:12:00;;;;;;;16.25;12.63;;;2.30;99.90;;;;;;4933259;29;20051;-83
2022/12/12 11:14:45;;;;;;;15.77;12.95;;;2.30;99.90;;;;;;4902262;29;20125;-83
2022/12/12 11:17:29;;;;;;;15.48;13.02;;;2.30;99.90;;;;;;4915266;29;20058;-83
2022/12/12 11:19:57;;;;;;;15.52;12.52;;;2.30;99.90;;;;;;4928730;29;20601;-83
2022/12/12 11:22:23;;;;;;;13.48;11.35;;;2.40;99.90;;;;;;4926077;29;20039;-84
2022/12/12 11:24:50;;;;;;;17.77;13.32;;;2.40;99.90;;;;;;4911631;29;20051;-84
2022/12/12 11:27:22;;;;;;;17.02;12.73;;;2.30;99.90;;;;;;4910907;29;20423;-82
2022/12/12 11:29:57;;;;;;;15.73;12.55;;;2.30;99.90;;;;;;4911030;29;20039;-82
2022/12/12 11:32:27;;;;;;;19.90;13.68;;;2.30;99.90;;;;;;4910590;29;20032;-81
2022/12/12 11:35:00;;;;;;;15.13;12.85;;;2.30;99.90;;;;;;4907273;29;20035;-81
2022/12/12 11:37:36;;;;;;;15.88;12.98;;;2.30;99.90;;;;;;4910760;29;20047;-82
2022/12/12 11:40:02;;;;;;;17.90;14.35;;;2.30;99.90;;;;;;4912496;29;20126;-82
2022/12/12 11:42:30;;;;;;;17.20;13.68;;;2.40;99.90;;;;;;4927279;29;20040;-82
2022/12/12 11:45:02;;;;;;;18.80;13.57;;;2.40;99.90;;;;;;4910731;29;20047;-81
2022/12/12 11:47:39;;;;;;;20.25;12.88;;;2.50;99.90;;;;;;4907893;29;20491;-81
2022/12/12 11:50:26;;;;;;;19.85;13.23;;;2.40;99.90;;;;;;4912786;29;20040;-82
2022/12/12 11:52:54;;;;;;;16.25;13.20;;;2.50;99.90;;;;;;4932503;29;20667;-85
2022/12/12 11:55:56;;;;;;;18.27;13.18;;;2.50;99.90;;;;;;4900111;29;20475;-84
2022/12/12 11:58:44;;;;;;;17.55;13.82;;;2.50;99.90;;;;;;4912875;29;20062;-84
2022/12/12 12:01:22;;;;;;;17.25;13.43;;;2.50;99.90;;;;;;4913097;29;20035;-83
2022/12/12 12:04:21;;;;;;;21.45;12.32;;;2.40;99.90;;;;;;4898074;29;20043;-83
2022/12/12 12:06:56;;;;;;;19.05;14.45;;;2.40;99.90;;;;;;4915779;29;20406;-84
2022/12/12 12:09:25;;;;;;;17.50;13.27;;;2.40;99.90;;;;;;4907072;29;20040;-83
2022/12/12 12:12:10;;;;;;;18.90;12.45;;;2.40;99.90;;;;;;4909422;29;20048;-84
2022/12/12 12:14:42;;;;;;;16.65;13.45;;;2.50;99.90;;;;;;4924253;29;20600;-84
2022/12/12 12:17:29;;;;;;;16.60;12.93;;;2.50;99.90;;;;;;4907895;29;20114;-84
2022/12/12 12:20:00;;;;;;;16.88;13.45;;;2.50;99.90;;;;;;4912413;29;20036;-84
2022/12/12 12:22:43;;;;;;;18.23;14.07;;;2.50;99.90;;;;;;4909698;29;20048;-85
2022/12/12 12:25:36;;;;;;;18.80;13.97;;;2.50;99.90;;;;;;4901221;29;20040;-85
2022/12/12 12:28:30;;;;;;;20.00;14.73;;;2.50;99.90;;;;;;4913412;29;20294;-85
2022/12/12 12:31:02;;;;;;;19.17;15.50;;;2.50;99.90;;;;;;4899533;29;20047;-84
2022/12/12 12:33:57;;;;;;;22.38;15.77;;;2.50;99.90;;;;;;4899375;29;20467;-85
2022/12/12 12:36:33;;;;;;;21.02;15.93;;;2.50;99.90;;;;;;4910842;29;20514;-85
2022/12/12 12:39:35;;;;;;;19.38;14.77;;;2.60;99.90;;;;;;4908830;29;20048;-84
2022/12/12 12:42:10;;;;;;;16.40;13.63;;;2.50;99.90;;;;;;4909386;29;20043;-84
2022/12/12 12:44:50;;;;;;;19.38;15.02;;;2.50;99.90;;;;;;4909296;29;20036;-84
2022/12/12 12:47:25;;;;;;;20.75;14.85;;;2.50;99.90;;;;;;4914224;29;20487;-84
2022/12/12 12:50:38;;;;;;;19.50;14.82;;;2.50;99.90;;;;;;4907456;29;20039;-85
2022/12/12 12:53:21;;;;;;;18.85;14.68;;;2.50;99.90;;;;;;4896520;29;20054;-83
2022/12/12 12:55:55;;;;;;;20.48;14.65;;;2.50;99.90;;;;;;4911735;29;20676;-84
2022/12/12 12:58:28;;;;;;;19.58;15.63;;;2.50;99.90;;;;;;4909107;29;20052;-84
2022/12/12 13:01:03;;;;;;;22.63;16.92;;;2.50;99.90;;;;;;4900219;29;20130;-84
2022/12/12 13:03:39;;;;;;;18.70;16.20;;;2.50;99.90;;;;;;4930354;29;20176;-84
2022/12/12 13:06:31;;;;;;;20.70;15.95;;;2.50;99.90;;;;;;4910237;29;20327;-84
2022/12/12 13:09:08;;;;;;;20.23;16.65;;;2.50;99.90;;;;;;4899856;29;20044;-84
2022/12/12 13:11:54;;;;;;;22.20;16.42;;;2.60;99.90;;;;;;4915205;29;20114;-84
2022/12/12 13:14:57;;;;;;;19.25;16.13;;;2.40;99.90;;;;;;4919396;29;20066;-85
2022/12/12 13:17:34;;;;;;;21.75;14.77;;;2.50;99.90;;;;;;4888324;29;20063;-84
2022/12/12 13:20:00;;;;;;;18.98;14.23;;;2.30;99.90;;;;;;4896394;29;20070;-84
2022/12/12 13:23:08;;;;;;;17.77;15.07;;;2.30;99.90;;;;;;4911001;29;20048;-84
2022/12/12 13:25:49;;;;;;;18.63;14.85;;;2.30;99.90;;;;;;4840092;29;20101;-84
2022/12/12 13:28:27;;;;;;;17.67;14.95;;;2.40;99.90;;;;;;4892215;29;20051;-85
2022/12/12 13:31:31;;;;;;;19.25;14.80;;;2.30;99.90;;;;;;4903641;29;20040;-85
2022/12/12 13:34:11;;;;;;;18.27;14.68;;;2.30;99.90;;;;;;4916995;29;20131;-85
2022/12/12 13:36:40;;;;;;;16.30;13.52;;;2.30;99.90;;;;;;4915435;29;20137;-84
2022/12/12 13:39:39;;;;;;;17.42;14.38;;;2.40;99.90;;;;;;4902662;29;20050;-85
2022/12/12 13:42:09;;;;;;;18.75;15.60;;;2.40;99.90;;;;;;4909485;29;20044;-85
2022/12/12 13:44:47;;;;;;;21.60;15.80;;;2.30;99.90;;;;;;4912532;29;20055;-85
2022/12/12 13:47:32;;;;;;;19.38;15.05;;;2.30;99.90;;;;;;4918220;29;20049;-84
2022/12/12 13:50:21;;;;;;;18.48;14.27;;;2.30;99.90;;;;;;4918774;29;20130;-84
2022/12/12 13:53:06;;;;;;;20.73;14.32;;;2.30;99.90;;;;;;4917941;29;20158;-84
2022/12/12 13:55:33;;;;;;;16.90;13.67;;;2.40;99.90;;;;;;4929354;29;20419;-85
2022/12/12 13:58:01;;;;;;;19.77;14.65;;;2.40;99.90;;;;;;4909440;29;20299;-85
2022/12/12 14:00:34;;;;;;;19.50;14.90;;;2.40;99.90;;;;;;4913142;29;20044;-85
2022/12/12 14:03:35;;;;;;;17.67;13.98;;;2.50;99.90;;;;;;4888244;29;20052;-85
2022/12/12 14:06:27;;;;;;;22.15;15.57;;;2.40;99.90;;;;;;4900278;29;20047;-85
2022/12/12 14:08:57;;;;;;;21.25;15.70;;;2.40;99.90;;;;;;4894955;29;20060;-85
2022/12/12 14:11:34;;;;;;;23.48;16.88;;;2.40;99.90;;;;;;4909317;29;20067;-85
2022/12/12 14:14:18;;;;;;;22.75;16.23;;;2.80;99.90;;;;;;4927709;29;20537;-84
2022/12/12 14:16:51;;;;;;;22.25;16.75;;;2.50;99.90;;;;;;4899768;29;20115;-84
2022/12/12 14:20:13;;;;;;;23.10;17.90;;;2.40;99.90;;;;;;4926214;29;20058;-85
2022/12/12 14:26:27;;;;;;;23.83;16.85;;;1.70;99.90;;;;;;4878859;29;20080;-85
2022/12/12 14:29:17;;;;;;;24.50;17.92;;;2.20;99.90;;;;;;4864485;29;20049;-83
2022/12/12 14:32:10;;;;;;;27.13;18.15;;;2.10;99.90;;;;;;4875206;29;20044;-83
2022/12/12 14:35:13;;;;;;;24.88;17.35;;;2.00;99.90;;;;;;4870404;29;20436;-83
2022/12/12 14:38:04;;;;;;;23.98;17.10;;;1.90;99.90;;;;;;4891787;29;20048;-83
2022/12/12 14:40:38;;;;;;;21.77;16.98;;;1.90;99.90;;;;;;4897049;29;20096;-84
2022/12/12 14:43:27;;;;;;;25.15;18.73;;;1.80;99.90;;;;;;4881840;29;20040;-84
2022/12/12 14:45:54;;;;;;;28.40;17.52;;;1.60;99.90;;;;;;4910187;29;20039;-83
2022/12/12 14:48:34;;;;;;;27.02;19.52;;;1.50;99.90;;;;;;4912229;29;20039;-85
2022/12/12 14:51:21;;;;;;;26.35;18.38;;;1.40;99.90;;;;;;4883213;29;20078;-83
2022/12/12 14:53:55;;;;;;;25.73;18.63;;;1.40;99.90;;;;;;4894379;29;20079;-83
2022/12/12 14:56:44;;;;;;;26.67;18.75;;;1.20;99.90;;;;;;4906217;29;20094;-83
2022/12/12 14:59:26;;;;;;;27.13;18.75;;;1.40;99.90;;;;;;4912226;29;20463;-83
2022/12/12 15:02:04;;;;;;;20.95;16.48;;;1.00;99.90;;;;;;4904824;29;20040;-83
2022/12/12 15:04:33;;;;;;;23.10;18.23;;;1.00;99.90;;;;;;4895177;29;20035;-84
2022/12/12 15:07:01;;;;;;;27.33;19.25;;;0.90;99.90;;;;;;4907141;29;20048;-83
2022/12/12 15:09:30;;;;;;;26.90;18.00;;;0.90;99.90;;;;;;4907143;29;20122;-83
2022/12/12 15:12:24;;;;;;;24.27;17.67;;;0.80;99.90;;;;;;4904561;29;20039;-82
2022/12/12 15:14:55;;;;;;;26.98;18.33;;;0.80;99.90;;;;;;4893351;29;20838;-82
2022/12/12 15:17:26;;;;;;;25.75;19.75;;;0.80;99.90;;;;;;4908130;29;20581;-82
2022/12/12 15:20:02;;;;;;;32.90;20.15;;;0.80;99.90;;;;;;4905365;29;20063;-82
2022/12/12 15:22:37;;;;;;;29.48;19.90;;;0.80;99.90;;;;;;4895216;29;20039;-83